Time;durP1;ratioP1;P1;durP2;ratioP2;P2;SDS_P1;SDS_P2;PMS_P1;PMS_P2;Temp;Humidity;BMP_temperature;BMP_pressure;BME280_temperature;BME280_humidity;BME280_pressure;Samples;Min_cycle;Max_cycle;Signal;HPM_P1;HPM_P2
2022/02/28 00:01:23;;;;;;;13.93;7.43;;;3.10;99.90;;;;;;5024624;28;20203;-86
2022/02/28 00:03:50;;;;;;;13.60;8.07;;;2.80;99.90;;;;;;5024550;28;20235;-86
2022/02/28 00:06:18;;;;;;;14.63;8.27;;;2.90;99.90;;;;;;5022102;28;20226;-86
2022/02/28 00:08:44;;;;;;;13.95;7.97;;;2.90;99.90;;;;;;5021804;28;20669;-86
2022/02/28 00:11:13;;;;;;;11.07;7.78;;;2.90;99.90;;;;;;5021941;28;20703;-86
2022/02/28 00:13:40;;;;;;;10.35;7.03;;;2.90;99.90;;;;;;5022697;28;20227;-86
2022/02/28 00:16:08;;;;;;;15.35;8.02;;;2.90;99.90;;;;;;5022259;28;20664;-86
2022/02/28 00:18:35;;;;;;;12.57;7.80;;;2.90;99.90;;;;;;5021967;28;20604;-86
2022/02/28 00:21:03;;;;;;;11.35;7.68;;;2.90;99.90;;;;;;5023393;28;20238;-86
2022/02/28 00:23:30;;;;;;;12.25;7.22;;;2.70;99.90;;;;;;5024312;28;20239;-86
2022/02/28 00:25:57;;;;;;;10.18;6.97;;;2.90;99.90;;;;;;5021146;28;20223;-86
2022/02/28 00:28:26;;;;;;;13.55;7.72;;;2.60;99.90;;;;;;5021302;28;20212;-86
2022/02/28 00:30:53;;;;;;;15.02;9.57;;;2.80;99.90;;;;;;5021973;28;20239;-86
2022/02/28 00:33:20;;;;;;;13.52;8.00;;;2.60;99.90;;;;;;5020515;28;20292;-86
2022/02/28 00:35:46;;;;;;;12.38;8.02;;;2.80;99.90;;;;;;5020965;28;20233;-86
2022/02/28 00:38:13;;;;;;;12.77;7.68;;;2.80;99.90;;;;;;5021468;28;20239;-86
2022/02/28 00:40:41;;;;;;;13.60;9.00;;;2.80;99.90;;;;;;5020338;28;20212;-86
2022/02/28 00:43:09;;;;;;;9.20;7.07;;;2.80;99.90;;;;;;5021954;28;20228;-86
2022/02/28 00:45:37;;;;;;;13.10;6.55;;;2.70;99.90;;;;;;5020616;28;20230;-86
2022/02/28 00:48:05;;;;;;;12.07;7.35;;;2.60;99.90;;;;;;5020768;28;20234;-86
2022/02/28 00:50:32;;;;;;;11.82;7.43;;;2.60;99.90;;;;;;5025257;28;20732;-86
2022/02/28 00:53:00;;;;;;;12.07;7.63;;;2.30;99.90;;;;;;5027833;28;20239;-86
2022/02/28 00:55:27;;;;;;;12.27;7.90;;;2.30;99.90;;;;;;5039421;28;20203;-86
2022/02/28 00:57:55;;;;;;;11.57;7.47;;;2.40;99.90;;;;;;5037720;28;20200;-87
2022/02/28 01:00:24;;;;;;;9.90;7.43;;;2.20;99.90;;;;;;5027714;28;20694;-86
2022/02/28 01:02:54;;;;;;;10.95;7.78;;;2.20;99.90;;;;;;5027237;28;20262;-86
2022/02/28 01:05:22;;;;;;;13.38;7.57;;;2.20;99.90;;;;;;5033595;28;20230;-86
2022/02/28 01:07:50;;;;;;;10.93;7.40;;;2.20;99.90;;;;;;5034449;28;20262;-86
2022/02/28 01:10:19;;;;;;;16.38;7.90;;;2.40;99.90;;;;;;5027423;28;20204;-86
2022/02/28 01:12:46;;;;;;;12.75;7.82;;;2.50;99.90;;;;;;5027226;28;20636;-86
2022/02/28 01:15:15;;;;;;;15.00;6.20;;;2.40;99.90;;;;;;5034790;28;20266;-86
2022/02/28 01:17:42;;;;;;;11.57;6.07;;;2.30;99.90;;;;;;5025709;28;20211;-86
2022/02/28 01:20:12;;;;;;;9.73;6.90;;;2.40;99.90;;;;;;5027834;28;20215;-86
2022/02/28 01:22:40;;;;;;;12.70;6.95;;;2.50;99.90;;;;;;5027859;28;20269;-86
2022/02/28 01:25:08;;;;;;;11.27;6.85;;;2.30;99.90;;;;;;5039884;28;20271;-85
2022/02/28 01:27:35;;;;;;;15.07;7.78;;;2.20;99.90;;;;;;5039817;28;20266;-84
2022/02/28 01:30:02;;;;;;;11.77;7.50;;;2.40;99.90;;;;;;5038708;28;20243;-85
2022/02/28 01:32:29;;;;;;;11.35;6.32;;;2.30;99.90;;;;;;5032324;28;20287;-85
2022/02/28 01:34:55;;;;;;;11.50;7.25;;;2.40;99.90;;;;;;5033903;28;20246;-84
2022/02/28 01:37:24;;;;;;;10.80;6.75;;;2.30;99.90;;;;;;5033649;28;20292;-84
2022/02/28 01:39:51;;;;;;;11.48;6.95;;;2.40;99.90;;;;;;5033608;28;20219;-84
2022/02/28 01:42:18;;;;;;;11.23;6.50;;;2.20;99.90;;;;;;5028021;28;20689;-84
2022/02/28 01:44:44;;;;;;;10.88;6.82;;;2.20;99.90;;;;;;5026600;28;20218;-85
2022/02/28 01:47:12;;;;;;;11.02;6.57;;;2.20;99.90;;;;;;5024752;28;20334;-84
2022/02/28 01:49:39;;;;;;;14.55;6.78;;;2.20;99.90;;;;;;5027019;28;20207;-85
2022/02/28 01:52:07;;;;;;;10.18;6.72;;;2.20;99.90;;;;;;5019992;28;20259;-85
2022/02/28 01:54:35;;;;;;;10.95;6.32;;;2.30;99.90;;;;;;5019890;28;20198;-85
2022/02/28 01:57:02;;;;;;;11.95;8.15;;;2.10;99.90;;;;;;5033371;28;20195;-85
2022/02/28 01:59:29;;;;;;;11.50;6.45;;;2.30;99.90;;;;;;5031010;28;20218;-86
2022/02/28 02:01:56;;;;;;;10.20;7.35;;;2.10;99.90;;;;;;5028041;28;20310;-86
2022/02/28 02:04:23;;;;;;;10.25;6.80;;;2.20;99.90;;;;;;5025316;28;20247;-86
2022/02/28 02:06:50;;;;;;;11.95;7.25;;;2.40;99.90;;;;;;5027490;28;20259;-86
2022/02/28 02:09:17;;;;;;;10.05;6.43;;;2.40;99.90;;;;;;5029956;28;20207;-86
2022/02/28 02:11:46;;;;;;;11.35;7.30;;;2.30;99.90;;;;;;5030426;28;20688;-87
2022/02/28 02:14:13;;;;;;;12.52;7.85;;;2.30;99.90;;;;;;5025206;28;20307;-86
2022/02/28 02:16:40;;;;;;;12.40;7.07;;;2.20;99.90;;;;;;5022726;28;20215;-86
2022/02/28 02:19:07;;;;;;;10.80;6.53;;;2.30;99.90;;;;;;5020826;28;20330;-86
2022/02/28 02:21:36;;;;;;;13.07;6.55;;;2.30;99.90;;;;;;5020508;28;20294;-86
2022/02/28 02:24:03;;;;;;;14.55;6.88;;;2.30;99.90;;;;;;5020803;28;20243;-86
2022/02/28 02:26:30;;;;;;;11.93;7.13;;;2.20;99.90;;;;;;5025970;28;20229;-86
2022/02/28 02:28:57;;;;;;;11.30;7.43;;;1.90;99.90;;;;;;5021641;28;20215;-86
2022/02/28 02:31:24;;;;;;;14.18;7.20;;;1.90;99.90;;;;;;5024626;28;20207;-86
2022/02/28 02:33:51;;;;;;;14.82;8.45;;;1.90;99.90;;;;;;5022972;28;20601;-86
2022/02/28 02:36:18;;;;;;;12.80;7.30;;;1.80;99.90;;;;;;5022860;28;20211;-86
2022/02/28 02:38:47;;;;;;;10.30;6.75;;;1.80;99.90;;;;;;5022408;28;20299;-86
2022/02/28 02:41:17;;;;;;;11.60;7.28;;;1.90;99.90;;;;;;5023267;28;20206;-86
2022/02/28 02:43:44;;;;;;;13.60;7.35;;;1.90;99.90;;;;;;5022137;28;20219;-86
2022/02/28 02:46:12;;;;;;;16.48;7.57;;;1.80;99.90;;;;;;5022827;28;20274;-86
2022/02/28 02:48:39;;;;;;;12.38;8.52;;;1.70;99.90;;;;;;5024724;28;20232;-86
2022/02/28 02:51:06;;;;;;;14.48;7.75;;;1.80;99.90;;;;;;5023831;28;20204;-86
2022/02/28 02:53:33;;;;;;;12.07;7.40;;;1.70;99.90;;;;;;5052294;23;20237;-89
2022/02/28 02:56:02;;;;;;;12.95;6.90;;;1.90;99.90;;;;;;5048856;28;20285;-87
2022/02/28 02:58:29;;;;;;;9.90;6.65;;;1.90;99.90;;;;;;5048326;28;20271;-88
2022/02/28 03:00:56;;;;;;;10.82;6.68;;;1.80;99.90;;;;;;5049126;28;20199;-88
2022/02/28 03:03:23;;;;;;;10.40;6.82;;;1.90;99.90;;;;;;5047736;28;20227;-87
2022/02/28 03:05:51;;;;;;;12.27;7.25;;;1.80;99.90;;;;;;5049192;28;20219;-87
2022/02/28 03:08:19;;;;;;;11.70;7.18;;;1.70;99.90;;;;;;5051769;28;20207;-88
2022/02/28 03:10:46;;;;;;;13.60;7.60;;;1.80;99.90;;;;;;5049437;28;20281;-87
2022/02/28 03:13:14;;;;;;;11.25;7.32;;;1.90;99.90;;;;;;5049966;28;20730;-87
2022/02/28 03:15:41;;;;;;;10.05;6.82;;;1.70;99.90;;;;;;5050271;28;20203;-86
2022/02/28 03:18:08;;;;;;;13.25;6.70;;;1.80;99.90;;;;;;5049516;28;20287;-87
2022/02/28 03:20:35;;;;;;;10.27;6.65;;;1.60;99.90;;;;;;5056221;28;20191;-85
2022/02/28 03:23:02;;;;;;;9.50;6.88;;;1.60;99.90;;;;;;5058148;28;20214;-87
2022/02/28 03:25:29;;;;;;;10.98;7.10;;;1.70;99.90;;;;;;5054448;28;20227;-88
2022/02/28 03:27:56;;;;;;;14.32;6.72;;;1.40;99.90;;;;;;5048049;28;20207;-87
2022/02/28 03:30:25;;;;;;;11.30;6.75;;;1.60;99.90;;;;;;5049041;28;20233;-88
2022/02/28 03:32:51;;;;;;;10.60;6.50;;;1.60;99.90;;;;;;5048768;28;20230;-87
2022/02/28 03:35:18;;;;;;;12.60;7.35;;;1.30;99.90;;;;;;5047239;28;20203;-87
2022/02/28 03:37:45;;;;;;;10.65;6.45;;;1.60;99.90;;;;;;5048507;28;20206;-87
2022/02/28 03:40:13;;;;;;;10.77;7.22;;;1.50;99.90;;;;;;5050650;28;20203;-86
2022/02/28 03:42:40;;;;;;;10.23;6.75;;;1.30;99.90;;;;;;5058181;28;20211;-85
2022/02/28 03:45:08;;;;;;;12.15;7.05;;;1.40;99.90;;;;;;5052785;28;20206;-88
2022/02/28 03:47:37;;;;;;;11.05;6.60;;;1.60;99.90;;;;;;5052545;28;20241;-88
2022/02/28 03:50:05;;;;;;;15.10;7.60;;;1.40;99.90;;;;;;5057452;28;20210;-88
2022/02/28 03:52:32;;;;;;;11.60;6.22;;;1.40;99.90;;;;;;5055084;28;20246;-85
2022/02/28 03:54:59;;;;;;;12.77;7.43;;;1.20;99.90;;;;;;5057887;28;20217;-86
2022/02/28 03:57:26;;;;;;;10.68;7.03;;;1.30;99.90;;;;;;5054129;28;20195;-88
2022/02/28 03:59:52;;;;;;;10.85;6.50;;;1.10;99.90;;;;;;5048908;28;20237;-87
2022/02/28 04:02:19;;;;;;;11.68;7.00;;;1.30;99.90;;;;;;5051090;28;20237;-87
2022/02/28 04:04:48;;;;;;;11.60;7.20;;;1.20;99.90;;;;;;5052644;28;20202;-86
2022/02/28 04:07:15;;;;;;;13.02;7.53;;;1.10;99.90;;;;;;5051377;28;20230;-86
2022/02/28 04:09:43;;;;;;;12.90;8.18;;;1.20;99.90;;;;;;5049970;28;20224;-88
2022/02/28 04:12:11;;;;;;;12.32;7.40;;;1.10;99.90;;;;;;5049185;28;20221;-87
2022/02/28 04:14:38;;;;;;;12.95;7.82;;;1.30;99.90;;;;;;5050796;28;20215;-87
2022/02/28 04:17:05;;;;;;;12.77;7.20;;;1.20;99.90;;;;;;5050761;28;20245;-88
2022/02/28 04:19:32;;;;;;;12.52;7.10;;;1.20;99.90;;;;;;5048860;28;20242;-86
2022/02/28 04:22:00;;;;;;;13.55;7.82;;;1.20;99.90;;;;;;5048253;28;20266;-88
2022/02/28 04:24:27;;;;;;;11.25;7.53;;;1.20;99.90;;;;;;5051674;28;20220;-87
2022/02/28 04:26:54;;;;;;;11.07;7.47;;;1.20;99.90;;;;;;5061801;28;20249;-85
2022/02/28 04:29:21;;;;;;;13.27;7.60;;;1.10;99.90;;;;;;5062002;28;20191;-85
2022/02/28 04:31:48;;;;;;;17.92;12.15;;;1.10;99.90;;;;;;5060334;28;20253;-85
2022/02/28 04:34:15;;;;;;;11.63;7.57;;;1.00;99.90;;;;;;5061720;28;20238;-86
2022/02/28 04:36:42;;;;;;;15.57;7.63;;;1.10;99.90;;;;;;5061399;28;20183;-87
2022/02/28 04:39:10;;;;;;;13.43;7.47;;;1.00;99.90;;;;;;5055753;28;20207;-86
2022/02/28 04:41:38;;;;;;;12.70;7.55;;;1.10;99.90;;;;;;5052493;28;20270;-86
2022/02/28 04:44:05;;;;;;;13.00;7.63;;;1.20;99.90;;;;;;5053712;28;20261;-87
2022/02/28 04:46:32;;;;;;;16.17;8.55;;;1.00;99.90;;;;;;5053109;28;20253;-88
2022/02/28 04:48:59;;;;;;;15.05;8.02;;;1.00;99.90;;;;;;5052591;28;20229;-87
2022/02/28 04:51:26;;;;;;;12.40;7.53;;;0.80;99.90;;;;;;5052444;28;20249;-87
2022/02/28 04:53:53;;;;;;;14.63;7.50;;;1.00;99.90;;;;;;5053633;28;20260;-88
2022/02/28 04:56:21;;;;;;;12.95;7.47;;;1.00;99.90;;;;;;5059418;28;20211;-87
2022/02/28 04:58:48;;;;;;;12.07;7.18;;;1.10;99.90;;;;;;5059492;28;20195;-87
2022/02/28 05:01:15;;;;;;;16.30;8.18;;;1.10;99.90;;;;;;5060162;28;20222;-88
2022/02/28 05:03:42;;;;;;;12.55;7.75;;;0.90;99.90;;;;;;5060875;28;20289;-86
2022/02/28 05:06:09;;;;;;;11.43;6.82;;;1.00;99.90;;;;;;5060427;28;20221;-86
2022/02/28 05:08:36;;;;;;;14.40;8.18;;;0.90;99.90;;;;;;5052007;28;20225;-88
2022/02/28 05:11:03;;;;;;;12.27;6.75;;;0.70;99.90;;;;;;5051478;28;20233;-88
2022/02/28 05:13:32;;;;;;;13.68;8.38;;;0.80;99.90;;;;;;5052682;28;20286;-86
2022/02/28 05:16:00;;;;;;;11.75;7.55;;;1.00;99.90;;;;;;5052996;28;20207;-87
2022/02/28 05:18:26;;;;;;;19.00;9.18;;;1.10;99.90;;;;;;5052015;28;20257;-88
2022/02/28 05:20:54;;;;;;;14.98;8.85;;;0.80;99.90;;;;;;5051336;28;20270;-89
2022/02/28 05:23:20;;;;;;;11.30;6.88;;;0.90;99.90;;;;;;5055823;28;20277;-87
2022/02/28 05:25:47;;;;;;;12.63;7.60;;;0.90;99.90;;;;;;5057267;28;20229;-86
2022/02/28 05:28:14;;;;;;;12.23;7.07;;;0.90;99.90;;;;;;5060792;28;20222;-84
2022/02/28 05:30:47;;;;;;;13.30;8.20;;;1.00;99.90;;;;;;5058326;28;20245;-89
2022/02/28 05:33:14;;;;;;;13.02;7.32;;;1.10;99.90;;;;;;5050917;28;20241;-88
2022/02/28 05:35:41;;;;;;;11.38;7.45;;;0.90;99.90;;;;;;5050677;28;20270;-88
2022/02/28 05:38:07;;;;;;;13.30;8.98;;;1.20;99.90;;;;;;5051127;28;20241;-87
2022/02/28 05:40:34;;;;;;;10.73;7.60;;;0.80;99.90;;;;;;5051556;28;20203;-87
2022/02/28 05:43:01;;;;;;;12.63;7.20;;;1.10;99.90;;;;;;5049999;28;20230;-89
2022/02/28 05:45:28;;;;;;;12.43;7.20;;;1.10;99.90;;;;;;5056834;28;20203;-85
2022/02/28 05:47:57;;;;;;;14.30;7.50;;;1.00;99.90;;;;;;5055297;28;20253;-88
2022/02/28 05:50:23;;;;;;;15.95;7.70;;;0.90;99.90;;;;;;5050637;28;20202;-87
2022/02/28 05:52:50;;;;;;;12.15;7.90;;;0.90;99.90;;;;;;5050175;28;20257;-87
2022/02/28 05:55:17;;;;;;;13.35;8.40;;;1.00;99.90;;;;;;5058678;28;20194;-86
2022/02/28 05:57:44;;;;;;;15.52;9.15;;;0.90;99.90;;;;;;5056821;28;20260;-88
2022/02/28 06:00:12;;;;;;;15.07;8.75;;;0.80;99.90;;;;;;5049844;28;20644;-88
2022/02/28 06:02:38;;;;;;;13.98;7.60;;;0.90;99.90;;;;;;5049547;28;20291;-88
2022/02/28 06:05:08;;;;;;;11.60;7.70;;;0.80;99.90;;;;;;5049544;28;20274;-89
2022/02/28 06:07:35;;;;;;;16.85;7.10;;;0.70;99.90;;;;;;5048783;28;20254;-88
2022/02/28 06:10:01;;;;;;;12.95;8.65;;;0.80;99.90;;;;;;5050696;28;20250;-87
2022/02/28 06:12:28;;;;;;;16.30;9.50;;;0.50;99.90;;;;;;5049909;28;20227;-87
2022/02/28 06:18:19;;;;;;;13.18;8.10;;;0.70;99.90;;;;;;5037985;28;20270;-88
2022/02/28 06:20:47;;;;;;;15.85;8.27;;;0.70;99.90;;;;;;5049401;28;20199;-86
2022/02/28 06:23:15;;;;;;;13.38;9.15;;;0.70;99.90;;;;;;5051412;28;20229;-87
2022/02/28 06:25:42;;;;;;;14.45;8.70;;;0.70;99.90;;;;;;5056936;28;20211;-85
2022/02/28 06:28:09;;;;;;;12.60;8.23;;;0.60;99.90;;;;;;5059339;28;20221;-86
2022/02/28 06:30:36;;;;;;;12.70;8.32;;;0.80;99.90;;;;;;5049274;28;20297;-88
2022/02/28 06:33:03;;;;;;;16.83;9.43;;;0.60;99.90;;;;;;5047160;28;20313;-88
2022/02/28 06:35:31;;;;;;;13.70;7.85;;;0.80;99.90;;;;;;5047771;28;20261;-88
2022/02/28 06:38:32;;;;;;;15.07;8.32;;;0.70;99.90;;;;;;5047763;28;20219;-90
2022/02/28 06:40:59;;;;;;;16.60;9.50;;;0.50;99.90;;;;;;5046605;28;20248;-90
2022/02/28 06:43:37;;;;;;;14.73;8.65;;;0.70;99.90;;;;;;5045105;28;20230;-88
2022/02/28 06:46:07;;;;;;;19.05;8.85;;;0.60;99.90;;;;;;5044426;28;20218;-89
2022/02/28 06:48:37;;;;;;;15.00;8.63;;;0.70;99.90;;;;;;5044134;28;20211;-89
2022/02/28 06:51:04;;;;;;;16.77;10.23;;;0.80;99.90;;;;;;5047760;28;20202;-89
2022/02/28 06:53:40;;;;;;;18.08;9.48;;;0.70;99.90;;;;;;5055650;28;20276;-89
2022/02/28 06:56:13;;;;;;;17.10;9.82;;;0.90;99.90;;;;;;5047065;28;20640;-88
2022/02/28 06:58:41;;;;;;;16.85;10.60;;;0.70;99.90;;;;;;5046354;28;20594;-90
2022/02/28 07:01:35;;;;;;;17.92;9.48;;;0.90;99.90;;;;;;5046067;28;20199;-88
2022/02/28 07:04:27;;;;;;;;;;;;;;;;;;;;;
2022/02/28 07:06:54;;;;;;;15.70;9.52;;;1.00;99.90;;;;;;5045329;28;20604;-89
2022/02/28 07:09:24;;;;;;;19.35;9.75;;;0.90;99.90;;;;;;5045875;28;20203;-87
2022/02/28 07:11:52;;;;;;;19.55;10.98;;;0.80;99.90;;;;;;5051881;28;20190;-88
2022/02/28 07:14:20;;;;;;;16.40;10.35;;;0.80;99.90;;;;;;5058348;28;20202;-88
2022/02/28 07:16:49;;;;;;;21.42;10.80;;;0.90;99.90;;;;;;5057223;28;20218;-87
2022/02/28 07:19:20;;;;;;;22.17;10.98;;;1.20;99.90;;;;;;5055609;28;20194;-87
2022/02/28 07:21:47;;;;;;;15.07;10.27;;;1.20;99.90;;;;;;5055781;28;20203;-87
2022/02/28 07:24:14;;;;;;;16.15;10.73;;;1.30;99.90;;;;;;5049029;28;20222;-88
2022/02/28 07:26:44;;;;;;;18.05;10.93;;;1.50;99.90;;;;;;5050985;28;20624;-88
2022/02/28 07:29:12;;;;;;;20.92;11.07;;;1.40;99.90;;;;;;5048658;28;20179;-89
2022/02/28 07:31:42;;;;;;;19.27;10.77;;;1.50;99.90;;;;;;5047880;28;20739;-88
2022/02/28 07:34:09;;;;;;;18.90;10.43;;;1.80;99.90;;;;;;5036997;23;20228;-88
2022/02/28 07:36:36;;;;;;;16.20;10.85;;;1.90;99.90;;;;;;5026862;28;20215;-87
2022/02/28 07:39:05;;;;;;;17.80;11.00;;;1.90;99.90;;;;;;5027231;28;20212;-86
2022/02/28 07:41:32;;;;;;;20.23;10.85;;;1.80;99.90;;;;;;5028616;28;20227;-87
2022/02/28 07:44:00;;;;;;;21.73;11.50;;;2.00;99.90;;;;;;5029185;28;20235;-88
2022/02/28 07:46:27;;;;;;;17.20;10.35;;;1.90;99.90;;;;;;5027601;28;20211;-87
2022/02/28 07:48:54;;;;;;;20.17;12.82;;;2.10;99.90;;;;;;5033887;28;20196;-86
2022/02/28 07:51:21;;;;;;;17.25;12.50;;;2.10;99.90;;;;;;5034564;28;20230;-87
2022/02/28 07:53:48;;;;;;;20.85;12.77;;;2.20;99.90;;;;;;5026843;28;20239;-87
2022/02/28 07:56:15;;;;;;;20.55;13.05;;;2.40;99.90;;;;;;5027653;28;20680;-84
2022/02/28 07:58:42;;;;;;;16.65;11.60;;;2.40;99.90;;;;;;5037366;28;20226;-83
2022/02/28 08:01:10;;;;;;;21.90;12.93;;;2.30;99.90;;;;;;5031096;28;20192;-88
2022/02/28 08:03:37;;;;;;;19.25;11.82;;;2.70;99.90;;;;;;5028206;28;20298;-88
2022/02/28 08:06:04;;;;;;;20.55;12.48;;;2.50;99.90;;;;;;5025344;28;20283;-88
2022/02/28 08:08:31;;;;;;;17.73;12.20;;;2.60;99.90;;;;;;5029641;28;20227;-88
2022/02/28 08:10:58;;;;;;;16.75;11.30;;;2.80;99.90;;;;;;5035022;28;20207;-87
2022/02/28 08:13:25;;;;;;;20.30;12.65;;;2.70;99.90;;;;;;5035841;28;20250;-89
2022/02/28 08:16:06;;;;;;;22.10;13.55;;;3.00;99.90;;;;;;5029840;28;20199;-89
2022/02/28 08:18:37;;;;;;;22.88;12.68;;;3.00;99.90;;;;;;5027118;28;20192;-88
2022/02/28 08:21:04;;;;;;;22.58;13.73;;;3.10;99.90;;;;;;5025384;28;20192;-88
2022/02/28 08:23:31;;;;;;;22.98;13.27;;;3.20;99.90;;;;;;5025318;28;20216;-88
2022/02/28 08:25:58;;;;;;;21.75;12.55;;;3.20;99.90;;;;;;5027118;28;20208;-87
2022/02/28 08:28:25;;;;;;;20.15;12.40;;;3.30;99.90;;;;;;5027650;28;20245;-87
2022/02/28 08:30:52;;;;;;;20.02;13.18;;;3.30;99.90;;;;;;5024313;28;20204;-86
2022/02/28 08:33:25;;;;;;;59.83;23.23;;;3.50;99.90;;;;;;5026140;28;20238;-87
2022/02/28 08:35:53;;;;;;;21.02;12.93;;;3.70;99.90;;;;;;5023994;28;20573;-87
2022/02/28 08:38:20;;;;;;;505.80;121.35;;;3.40;99.90;;;;;;5023242;28;20246;-87
2022/02/28 08:40:47;;;;;;;34.05;15.27;;;3.90;99.90;;;;;;5022874;28;20228;-87
2022/02/28 08:43:15;;;;;;;22.70;13.25;;;4.00;99.90;;;;;;5027933;28;20225;-86
2022/02/28 08:45:42;;;;;;;20.40;13.32;;;4.10;99.90;;;;;;5028205;28;20217;-86
2022/02/28 08:48:09;;;;;;;21.58;13.10;;;3.80;99.90;;;;;;5027770;28;20222;-87
2022/02/28 08:50:37;;;;;;;28.83;12.05;;;4.10;99.90;;;;;;5035427;28;20200;-83
2022/02/28 08:53:05;;;;;;;24.48;11.00;;;4.20;99.90;;;;;;5036488;28;20220;-86
2022/02/28 08:55:32;;;;;;;23.48;12.48;;;4.80;99.90;;;;;;5028346;28;20210;-87
2022/02/28 08:57:59;;;;;;;22.45;12.82;;;4.40;99.90;;;;;;5028468;28;20705;-89
2022/02/28 09:00:27;;;;;;;21.83;12.05;;;4.30;99.90;;;;;;5026060;28;20205;-86
2022/02/28 09:02:54;;;;;;;27.50;13.13;;;4.70;99.90;;;;;;5025134;28;20254;-88
2022/02/28 09:05:21;;;;;;;17.55;10.70;;;4.60;99.90;;;;;;5025026;28;20215;-87
2022/02/28 09:07:48;;;;;;;19.05;11.73;;;5.00;99.90;;;;;;5036460;28;20246;-85
2022/02/28 09:10:18;;;;;;;22.48;13.05;;;4.70;99.90;;;;;;5038712;28;20257;-88
2022/02/28 09:12:45;;;;;;;18.83;12.05;;;4.50;99.90;;;;;;5040040;28;20215;-86
2022/02/28 09:15:18;;;;;;;24.88;12.75;;;5.00;99.90;;;;;;5040735;28;20213;-88
2022/02/28 09:17:45;;;;;;;19.88;12.27;;;4.60;99.90;;;;;;5040573;28;20175;-89
2022/02/28 09:20:13;;;;;;;21.30;9.98;;;5.20;99.50;;;;;;5029832;28;20257;-88
2022/02/28 09:22:41;;;;;;;11.48;7.60;;;5.20;98.60;;;;;;5027845;28;20235;-88
2022/02/28 09:25:08;;;;;;;16.95;9.07;;;5.40;96.60;;;;;;5028501;28;20214;-87
2022/02/28 09:27:37;;;;;;;15.40;8.98;;;5.50;96.20;;;;;;5026482;28;20224;-88
2022/02/28 09:30:06;;;;;;;14.98;10.27;;;5.00;95.70;;;;;;5026807;28;20214;-86
2022/02/28 09:32:33;;;;;;;14.55;9.00;;;5.50;95.70;;;;;;5032222;28;20718;-87
2022/02/28 09:35:00;;;;;;;15.57;10.20;;;5.30;95.00;;;;;;5030729;28;20190;-87
2022/02/28 09:37:33;;;;;;;18.30;12.35;;;5.40;95.50;;;;;;5030457;28;20210;-87
2022/02/28 09:40:00;;;;;;;20.30;12.93;;;5.70;96.40;;;;;;5032534;28;20198;-87
2022/02/28 09:42:30;;;;;;;22.30;12.63;;;5.80;96.80;;;;;;5031438;28;20234;-89
2022/02/28 09:45:03;;;;;;;20.45;10.40;;;5.80;96.60;;;;;;5027068;28;20582;-88
2022/02/28 09:47:34;;;;;;;22.23;11.65;;;5.60;96.40;;;;;;5026685;28;20297;-87
2022/02/28 09:50:03;;;;;;;19.38;12.45;;;6.00;96.10;;;;;;5028114;28;20559;-86
2022/02/28 09:52:31;;;;;;;19.92;12.20;;;6.00;96.00;;;;;;5027288;28;20631;-87
2022/02/28 09:54:58;;;;;;;19.45;11.00;;;6.00;95.80;;;;;;5029067;28;20228;-86
2022/02/28 09:57:26;;;;;;;14.43;9.15;;;5.80;95.80;;;;;;5029764;28;20210;-86
2022/02/28 09:59:53;;;;;;;15.98;9.02;;;6.20;95.00;;;;;;5034863;28;20218;-86
2022/02/28 10:02:22;;;;;;;11.93;6.85;;;6.00;94.00;;;;;;5037739;28;20222;-88
2022/02/28 10:04:51;;;;;;;13.93;8.73;;;6.40;92.70;;;;;;5036034;28;20188;-85
2022/02/28 10:07:19;;;;;;;13.65;7.90;;;6.40;92.40;;;;;;5039855;28;20225;-85
2022/02/28 10:09:46;;;;;;;11.98;7.82;;;6.50;92.10;;;;;;5039965;28;20230;-86
2022/02/28 10:12:13;;;;;;;15.07;8.88;;;6.60;91.40;;;;;;5038945;28;20215;-85
2022/02/28 10:14:44;;;;;;;12.32;6.93;;;6.70;91.20;;;;;;5036968;28;20216;-86
2022/02/28 10:17:11;;;;;;;12.43;7.93;;;6.70;90.20;;;;;;5035216;28;20197;-87
2022/02/28 10:19:40;;;;;;;14.95;8.77;;;6.70;90.20;;;;;;5029207;28;20739;-87
2022/02/28 10:22:07;;;;;;;14.20;9.20;;;6.80;89.40;;;;;;5028883;28;20207;-86
2022/02/28 10:24:36;;;;;;;13.85;8.25;;;6.90;88.80;;;;;;5030783;28;20216;-87
2022/02/28 10:27:04;;;;;;;15.93;8.20;;;6.70;88.50;;;;;;5029208;28;20225;-88
2022/02/28 10:29:34;;;;;;;15.18;8.95;;;6.70;87.50;;;;;;5029462;28;20239;-88
2022/02/28 10:32:04;;;;;;;19.73;9.98;;;6.90;88.30;;;;;;5032625;28;20259;-88
2022/02/28 10:34:34;;;;;;;17.58;10.20;;;6.70;87.50;;;;;;5028039;28;20233;-86
2022/02/28 10:37:06;;;;;;;19.42;10.18;;;7.30;87.20;;;;;;5036550;28;20187;-84
2022/02/28 10:39:35;;;;;;;20.13;10.32;;;7.40;86.20;;;;;;5038007;28;20199;-88
2022/02/28 10:42:08;;;;;;;16.52;9.93;;;7.50;86.00;;;;;;5032354;28;20214;-88
2022/02/28 10:44:36;;;;;;;14.95;9.18;;;7.60;85.80;;;;;;5028985;28;20233;-89
2022/02/28 10:47:05;;;;;;;13.73;9.13;;;7.60;85.10;;;;;;5028815;28;20217;-89
2022/02/28 10:49:34;;;;;;;42.22;18.17;;;7.60;85.00;;;;;;5027560;28;20646;-86
2022/02/28 10:52:04;;;;;;;27.17;12.35;;;7.60;84.90;;;;;;5028480;28;20211;-88
2022/02/28 10:54:35;;;;;;;21.15;11.52;;;7.60;85.20;;;;;;5029492;28;20222;-88
2022/02/28 10:57:04;;;;;;;17.65;11.55;;;7.70;85.30;;;;;;5027095;28;20230;-88
2022/02/28 10:59:34;;;;;;;15.13;9.43;;;7.80;84.60;;;;;;5026503;28;20209;-88
2022/02/28 11:02:02;;;;;;;18.93;10.83;;;7.80;83.80;;;;;;5027765;28;20211;-88
2022/02/28 11:04:31;;;;;;;15.65;9.80;;;7.90;83.50;;;;;;5023243;28;20454;-88
2022/02/28 11:06:58;;;;;;;24.02;12.30;;;7.80;84.10;;;;;;5024377;28;20276;-88
2022/02/28 11:09:35;;;;;;;16.45;10.52;;;8.00;84.20;;;;;;5025271;28;20261;-87
2022/02/28 11:12:25;;;;;;;13.75;7.57;;;7.70;83.90;;;;;;5024270;28;20202;-88
2022/02/28 11:14:53;;;;;;;19.48;10.40;;;8.00;83.90;;;;;;5024439;28;20253;-88
2022/02/28 11:17:22;;;;;;;15.20;8.85;;;8.10;83.20;;;;;;5025062;28;20591;-87
2022/02/28 11:19:51;;;;;;;17.25;11.73;;;8.10;83.30;;;;;;5026504;28;20286;-88
2022/02/28 11:22:18;;;;;;;31.75;13.32;;;8.10;83.50;;;;;;5030331;28;20258;-87
2022/02/28 11:24:47;;;;;;;17.27;10.05;;;8.10;84.10;;;;;;5032995;28;20247;-85
2022/02/28 11:27:14;;;;;;;14.23;9.60;;;8.20;82.80;;;;;;5034058;28;20191;-88
2022/02/28 11:29:42;;;;;;;14.70;10.10;;;8.30;81.80;;;;;;5025040;28;20567;-89
2022/02/28 11:32:09;;;;;;;16.10;10.10;;;8.40;81.60;;;;;;5026502;28;20221;-88
2022/02/28 11:34:36;;;;;;;15.07;10.60;;;8.50;81.10;;;;;;5028233;28;20482;-88
2022/02/28 11:37:05;;;;;;;14.73;9.57;;;8.50;79.70;;;;;;5037683;28;20218;-84
2022/02/28 11:39:35;;;;;;;18.52;9.82;;;8.50;79.30;;;;;;5037363;28;20435;-86
2022/02/28 11:42:06;;;;;;;15.03;10.73;;;8.50;79.70;;;;;;5034630;28;20275;-88
2022/02/28 11:44:36;;;;;;;15.10;10.93;;;8.60;79.00;;;;;;5037503;28;20457;-89
2022/02/28 11:47:06;;;;;;;37.67;16.20;;;8.70;78.50;;;;;;5034729;28;20226;-88
2022/02/28 11:49:44;;;;;;;15.40;10.10;;;8.80;78.40;;;;;;5029870;28;20478;-88
2022/02/28 11:52:30;;;;;;;13.60;9.43;;;8.90;77.10;;;;;;5030000;28;20458;-85
2022/02/28 11:55:03;;;;;;;15.40;9.90;;;8.90;76.40;;;;;;5029082;28;20620;-86
2022/02/28 11:57:52;;;;;;;17.80;10.60;;;8.90;75.80;;;;;;5030893;28;20442;-85
2022/02/28 12:00:39;;;;;;;17.95;9.75;;;8.80;75.40;;;;;;5033987;28;20506;-85
2022/02/28 12:03:29;;;;;;;15.07;8.23;;;8.70;75.30;;;;;;5036378;28;20217;-87
2022/02/28 12:05:56;;;;;;;14.27;8.53;;;8.70;74.70;;;;;;5031750;28;20458;-89
2022/02/28 12:08:35;;;;;;;17.58;9.60;;;8.70;72.40;;;;;;5028196;28;20478;-88
2022/02/28 12:11:17;;;;;;;15.95;9.15;;;8.70;72.70;;;;;;5025462;28;20202;-87
2022/02/28 12:13:58;;;;;;;14.60;8.73;;;8.80;72.40;;;;;;5027654;28;20233;-86
2022/02/28 12:19:27;;;;;;;12.55;8.07;;;8.90;71.10;;;;;;5035383;28;20533;-84
2022/02/28 12:22:00;;;;;;;9.73;7.23;;;9.00;70.10;;;;;;5033290;28;20208;-86
2022/02/28 12:25:04;;;;;;;15.37;9.50;;;9.00;68.90;;;;;;5036171;28;20450;-88
2022/02/28 12:27:32;;;;;;;12.63;8.23;;;9.10;68.40;;;;;;5027224;28;20484;-87
2022/02/28 12:30:20;;;;;;;13.90;8.70;;;9.10;68.00;;;;;;5024097;28;20477;-87
2022/02/28 12:32:52;;;;;;;14.77;8.17;;;9.00;68.10;;;;;;5026190;28;20466;-88
2022/02/28 12:35:21;;;;;;;16.60;10.00;;;9.20;68.00;;;;;;5027977;28;20458;-87
2022/02/28 12:37:48;;;;;;;12.15;8.65;;;9.20;67.80;;;;;;5025837;28;20928;-87
2022/02/28 12:40:15;;;;;;;13.82;10.27;;;9.30;66.60;;;;;;5026086;28;20211;-86
2022/02/28 12:42:42;;;;;;;13.07;8.27;;;9.10;67.10;;;;;;5025455;28;20227;-86
2022/02/28 12:45:09;;;;;;;17.00;10.60;;;9.20;68.40;;;;;;5030390;28;20454;-84
2022/02/28 12:47:37;;;;;;;12.00;8.60;;;9.20;68.80;;;;;;5031657;28;20457;-87
2022/02/28 12:50:09;;;;;;;14.27;9.50;;;9.40;66.70;;;;;;5027342;28;20496;-87
2022/02/28 12:52:36;;;;;;;12.77;9.00;;;9.30;66.20;;;;;;5028781;28;20474;-87
2022/02/28 12:55:05;;;;;;;12.90;8.07;;;9.30;66.40;;;;;;5028894;28;20439;-87
2022/02/28 12:57:36;;;;;;;13.93;8.57;;;9.30;67.60;;;;;;5027512;28;20425;-87
2022/02/28 13:00:04;;;;;;;14.27;10.07;;;9.40;67.90;;;;;;5028697;28;20434;-87